sensor_id;sensor_type;location;lat;lon;timestamp;pressure;altitude;pressure_sealevel;temperature;humidity
52777;BME280;38656;54.260;20.822;2023-03-22T00:00:35;100869.56;;;9.54;77.55
52777;BME280;38656;54.260;20.822;2023-03-22T00:03:04;100866.16;;;9.52;76.93
52777;BME280;38656;54.260;20.822;2023-03-22T00:05:31;100859.00;;;9.42;77.61
52777;BME280;38656;54.260;20.822;2023-03-22T00:07:58;100855.22;;;9.46;77.26
52777;BME280;38656;54.260;20.822;2023-03-22T00:10:25;100854.13;;;9.48;76.79
52777;BME280;38656;54.260;20.822;2023-03-22T00:12:53;100855.84;;;9.49;76.94
52777;BME280;38656;54.260;20.822;2023-03-22T00:15:20;100845.22;;;9.38;76.38
52777;BME280;38656;54.260;20.822;2023-03-22T00:17:47;100848.44;;;8.90;77.86
52777;BME280;38656;54.260;20.822;2023-03-22T00:20:15;100853.66;;;8.77;78.80
52777;BME280;38656;54.260;20.822;2023-03-22T00:22:42;100855.78;;;8.85;79.38
52777;BME280;38656;54.260;20.822;2023-03-22T00:25:09;100851.69;;;8.81;79.99
52777;BME280;38656;54.260;20.822;2023-03-22T00:27:36;100851.38;;;8.98;79.12
52777;BME280;38656;54.260;20.822;2023-03-22T00:30:03;100842.13;;;8.93;79.96
52777;BME280;38656;54.260;20.822;2023-03-22T00:32:34;100851.50;;;8.15;84.34
52777;BME280;38656;54.260;20.822;2023-03-22T00:35:01;100850.84;;;8.53;82.79
52777;BME280;38656;54.260;20.822;2023-03-22T00:37:28;100849.91;;;8.40;82.67
52777;BME280;38656;54.260;20.822;2023-03-22T00:40:04;100847.84;;;8.72;81.55
52777;BME280;38656;54.260;20.822;2023-03-22T00:42:30;100843.34;;;8.47;82.01
52777;BME280;38656;54.260;20.822;2023-03-22T00:44:56;100838.44;;;9.08;79.69
52777;BME280;38656;54.260;20.822;2023-03-22T00:47:22;100841.28;;;9.18;78.69
52777;BME280;38656;54.260;20.822;2023-03-22T00:49:49;100840.22;;;9.08;82.15
52777;BME280;38656;54.260;20.822;2023-03-22T00:52:27;100843.50;;;9.24;82.09
52777;BME280;38656;54.260;20.822;2023-03-22T00:54:55;100833.69;;;9.00;84.09
52777;BME280;38656;54.260;20.822;2023-03-22T00:57:21;100835.59;;;9.11;84.69
52777;BME280;38656;54.260;20.822;2023-03-22T00:59:47;100831.50;;;9.20;87.72
52777;BME280;38656;54.260;20.822;2023-03-22T01:02:14;100832.19;;;9.73;82.83
52777;BME280;38656;54.260;20.822;2023-03-22T01:04:42;100830.88;;;9.92;80.83
52777;BME280;38656;54.260;20.822;2023-03-22T01:07:14;100828.16;;;9.81;81.27
52777;BME280;38656;54.260;20.822;2023-03-22T01:09:46;100825.19;;;9.98;81.19
52777;BME280;38656;54.260;20.822;2023-03-22T01:12:13;100825.13;;;10.11;80.39
52777;BME280;38656;54.260;20.822;2023-03-22T01:14:40;100821.41;;;9.77;82.03
52777;BME280;38656;54.260;20.822;2023-03-22T01:17:07;100816.28;;;9.99;81.87
52777;BME280;38656;54.260;20.822;2023-03-22T01:19:35;100820.84;;;9.34;90.85
52777;BME280;38656;54.260;20.822;2023-03-22T01:22:03;100814.25;;;10.40;86.72
52777;BME280;38656;54.260;20.822;2023-03-22T01:24:29;100811.34;;;9.45;89.84
52777;BME280;38656;54.260;20.822;2023-03-22T01:26:56;100808.81;;;10.54;89.04
52777;BME280;38656;54.260;20.822;2023-03-22T01:29:23;100805.19;;;10.31;88.20
52777;BME280;38656;54.260;20.822;2023-03-22T01:31:50;100796.19;;;10.09;91.47
52777;BME280;38656;54.260;20.822;2023-03-22T01:34:16;100807.13;;;9.55;91.03
52777;BME280;38656;54.260;20.822;2023-03-22T01:36:43;100793.16;;;9.79;91.57
52777;BME280;38656;54.260;20.822;2023-03-22T01:39:09;100786.88;;;10.65;91.45
52777;BME280;38656;54.260;20.822;2023-03-22T01:41:36;100788.03;;;10.01;90.30
52777;BME280;38656;54.260;20.822;2023-03-22T01:44:21;100781.34;;;10.68;89.78
52777;BME280;38656;54.260;20.822;2023-03-22T01:46:50;100782.88;;;10.95;86.07
52777;BME280;38656;54.260;20.822;2023-03-22T01:51:51;100779.81;;;9.56;96.41
52777;BME280;38656;54.260;20.822;2023-03-22T01:54:37;100769.22;;;9.19;97.83
52777;BME280;38656;54.260;20.822;2023-03-22T01:57:08;100768.78;;;10.23;94.86
52777;BME280;38656;54.260;20.822;2023-03-22T01:59:34;100767.19;;;9.35;96.91
52777;BME280;38656;54.260;20.822;2023-03-22T02:02:02;100756.22;;;10.51;95.47
52777;BME280;38656;54.260;20.822;2023-03-22T02:04:33;100760.94;;;9.62;100.00
52777;BME280;38656;54.260;20.822;2023-03-22T02:07:09;100753.38;;;10.06;99.94
52777;BME280;38656;54.260;20.822;2023-03-22T02:09:52;100754.31;;;9.81;99.95
52777;BME280;38656;54.260;20.822;2023-03-22T02:15:10;100752.72;;;10.39;97.24
52777;BME280;38656;54.260;20.822;2023-03-22T02:29:51;100746.06;;;11.82;88.77
52777;BME280;38656;54.260;20.822;2023-03-22T02:41:23;100738.88;;;12.17;85.72
52777;BME280;38656;54.260;20.822;2023-03-22T02:46:42;100738.31;;;11.91;87.70
52777;BME280;38656;54.260;20.822;2023-03-22T02:49:17;100729.28;;;12.37;86.84
52777;BME280;38656;54.260;20.822;2023-03-22T02:51:53;100729.44;;;12.03;87.94
52777;BME280;38656;54.260;20.822;2023-03-22T02:54:32;100724.41;;;12.00;87.74
52777;BME280;38656;54.260;20.822;2023-03-22T02:59:38;100723.41;;;12.01;89.60
52777;BME280;38656;54.260;20.822;2023-03-22T03:02:09;100724.34;;;12.11;87.35
52777;BME280;38656;54.260;20.822;2023-03-22T03:04:41;100717.91;;;12.67;85.42
52777;BME280;38656;54.260;20.822;2023-03-22T03:07:10;100714.63;;;12.54;84.46
52777;BME280;38656;54.260;20.822;2023-03-22T03:09:39;100716.91;;;12.59;84.23
52777;BME280;38656;54.260;20.822;2023-03-22T03:12:26;100710.47;;;12.61;84.45
52777;BME280;38656;54.260;20.822;2023-03-22T03:14:53;100712.63;;;12.46;85.04
52777;BME280;38656;54.260;20.822;2023-03-22T03:23:46;100707.97;;;12.60;86.73
52777;BME280;38656;54.260;20.822;2023-03-22T03:28:59;100709.78;;;12.38;87.92
52777;BME280;38656;54.260;20.822;2023-03-22T03:31:44;100714.03;;;12.50;86.44
52777;BME280;38656;54.260;20.822;2023-03-22T03:34:48;100703.75;;;12.36;87.81
52777;BME280;38656;54.260;20.822;2023-03-22T03:37:38;100701.19;;;12.25;87.73
52777;BME280;38656;54.260;20.822;2023-03-22T03:40:16;100708.44;;;12.23;89.12
52777;BME280;38656;54.260;20.822;2023-03-22T03:42:50;100713.72;;;12.44;88.05
52777;BME280;38656;54.260;20.822;2023-03-22T03:45:18;100706.28;;;12.16;89.29
52777;BME280;38656;54.260;20.822;2023-03-22T03:47:48;100709.66;;;12.61;88.18
52777;BME280;38656;54.260;20.822;2023-03-22T03:50:23;100709.53;;;12.93;85.32
52777;BME280;38656;54.260;20.822;2023-03-22T03:52:50;100707.69;;;12.63;85.47
52777;BME280;38656;54.260;20.822;2023-03-22T03:55:17;100699.09;;;12.07;88.74
52777;BME280;38656;54.260;20.822;2023-03-22T03:57:43;100687.31;;;13.15;85.32
52777;BME280;38656;54.260;20.822;2023-03-22T04:00:10;100693.88;;;12.17;87.30
52777;BME280;38656;54.260;20.822;2023-03-22T04:02:42;100692.44;;;11.80;91.45
52777;BME280;38656;54.260;20.822;2023-03-22T04:05:10;100687.44;;;12.31;92.10
52777;BME280;38656;54.260;20.822;2023-03-22T04:07:37;100697.63;;;12.14;90.55
52777;BME280;38656;54.260;20.822;2023-03-22T04:10:04;100692.63;;;11.56;95.85
52777;BME280;38656;54.260;20.822;2023-03-22T04:12:31;100691.72;;;11.01;95.05
52777;BME280;38656;54.260;20.822;2023-03-22T04:14:57;100693.69;;;10.40;100.00
52777;BME280;38656;54.260;20.822;2023-03-22T04:17:24;100695.66;;;10.84;100.00
52777;BME280;38656;54.260;20.822;2023-03-22T04:19:50;100684.06;;;11.64;100.00
52777;BME280;38656;54.260;20.822;2023-03-22T04:22:18;100689.09;;;11.67;100.00
52777;BME280;38656;54.260;20.822;2023-03-22T04:24:44;100681.25;;;10.65;100.00
52777;BME280;38656;54.260;20.822;2023-03-22T04:27:19;100680.53;;;10.63;100.00
52777;BME280;38656;54.260;20.822;2023-03-22T04:29:45;100680.53;;;10.74;100.00
52777;BME280;38656;54.260;20.822;2023-03-22T04:32:15;100675.00;;;10.31;100.00
52777;BME280;38656;54.260;20.822;2023-03-22T04:34:44;100665.63;;;11.30;100.00
52777;BME280;38656;54.260;20.822;2023-03-22T04:37:12;100661.19;;;11.19;100.00
52777;BME280;38656;54.260;20.822;2023-03-22T04:39:48;100663.47;;;10.67;100.00
52777;BME280;38656;54.260;20.822;2023-03-22T04:42:14;100659.88;;;10.91;100.00
52777;BME280;38656;54.260;20.822;2023-03-22T04:44:40;100662.22;;;11.50;100.00
52777;BME280;38656;54.260;20.822;2023-03-22T04:47:09;100666.44;;;11.74;100.00
52777;BME280;38656;54.260;20.822;2023-03-22T04:49:36;100665.31;;;11.01;100.00
52777;BME280;38656;54.260;20.822;2023-03-22T04:52:02;100670.72;;;11.65;100.00
52777;BME280;38656;54.260;20.822;2023-03-22T04:54:28;100658.13;;;11.46;100.00
52777;BME280;38656;54.260;20.822;2023-03-22T04:56:55;100669.13;;;11.08;100.00
52777;BME280;38656;54.260;20.822;2023-03-22T04:59:21;100668.75;;;11.12;100.00
52777;BME280;38656;54.260;20.822;2023-03-22T05:01:48;100675.84;;;11.78;100.00
52777;BME280;38656;54.260;20.822;2023-03-22T05:04:15;100665.66;;;11.07;100.00
52777;BME280;38656;54.260;20.822;2023-03-22T05:06:42;100666.56;;;11.40;100.00
52777;BME280;38656;54.260;20.822;2023-03-22T05:09:08;100661.28;;;11.29;100.00
52777;BME280;38656;54.260;20.822;2023-03-22T05:11:35;100662.03;;;11.31;100.00
52777;BME280;38656;54.260;20.822;2023-03-22T05:14:02;100667.22;;;10.29;100.00
52777;BME280;38656;54.260;20.822;2023-03-22T05:16:28;100654.28;;;11.83;100.00
52777;BME280;38656;54.260;20.822;2023-03-22T05:18:55;100655.94;;;11.51;100.00
52777;BME280;38656;54.260;20.822;2023-03-22T05:21:23;100651.47;;;11.08;100.00
52777;BME280;38656;54.260;20.822;2023-03-22T05:24:01;100652.28;;;11.75;100.00
52777;BME280;38656;54.260;20.822;2023-03-22T05:26:28;100650.22;;;12.11;100.00
52777;BME280;38656;54.260;20.822;2023-03-22T05:28:55;100640.44;;;12.54;100.00
52777;BME280;38656;54.260;20.822;2023-03-22T05:31:21;100648.50;;;11.57;100.00
52777;BME280;38656;54.260;20.822;2023-03-22T05:33:48;100641.25;;;11.15;100.00
52777;BME280;38656;54.260;20.822;2023-03-22T05:36:16;100638.13;;;11.10;100.00
52777;BME280;38656;54.260;20.822;2023-03-22T05:38:44;100644.34;;;11.75;100.00
52777;BME280;38656;54.260;20.822;2023-03-22T05:41:11;100640.66;;;11.11;100.00
52777;BME280;38656;54.260;20.822;2023-03-22T05:43:38;100633.91;;;12.06;100.00
52777;BME280;38656;54.260;20.822;2023-03-22T05:46:13;100623.78;;;13.04;100.00
52777;BME280;38656;54.260;20.822;2023-03-22T05:48:40;100631.00;;;12.09;100.00
52777;BME280;38656;54.260;20.822;2023-03-22T05:51:08;100618.41;;;12.53;100.00
52777;BME280;38656;54.260;20.822;2023-03-22T05:53:45;100627.31;;;12.00;100.00
52777;BME280;38656;54.260;20.822;2023-03-22T05:56:12;100621.00;;;12.65;100.00
52777;BME280;38656;54.260;20.822;2023-03-22T05:58:38;100626.59;;;12.19;100.00
52777;BME280;38656;54.260;20.822;2023-03-22T06:01:12;100630.53;;;12.04;100.00
52777;BME280;38656;54.260;20.822;2023-03-22T06:03:41;100633.75;;;11.43;100.00
52777;BME280;38656;54.260;20.822;2023-03-22T06:06:08;100627.56;;;12.39;100.00
52777;BME280;38656;54.260;20.822;2023-03-22T06:08:37;100629.69;;;11.92;100.00
52777;BME280;38656;54.260;20.822;2023-03-22T06:11:05;100636.69;;;12.26;100.00
52777;BME280;38656;54.260;20.822;2023-03-22T06:13:31;100618.00;;;11.74;100.00
52777;BME280;38656;54.260;20.822;2023-03-22T06:16:02;100627.13;;;13.06;100.00
52777;BME280;38656;54.260;20.822;2023-03-22T06:18:29;100631.75;;;13.14;100.00
52777;BME280;38656;54.260;20.822;2023-03-22T06:20:56;100626.47;;;11.89;100.00
52777;BME280;38656;54.260;20.822;2023-03-22T06:23:22;100624.50;;;12.44;100.00
52777;BME280;38656;54.260;20.822;2023-03-22T06:25:48;100620.63;;;12.48;100.00
52777;BME280;38656;54.260;20.822;2023-03-22T06:28:18;100627.88;;;12.04;100.00
52777;BME280;38656;54.260;20.822;2023-03-22T06:30:44;100638.97;;;11.98;100.00
52777;BME280;38656;54.260;20.822;2023-03-22T06:33:10;100626.38;;;12.32;100.00
52777;BME280;38656;54.260;20.822;2023-03-22T06:35:36;100627.88;;;12.25;100.00
52777;BME280;38656;54.260;20.822;2023-03-22T06:38:03;100623.63;;;12.34;100.00
52777;BME280;38656;54.260;20.822;2023-03-22T06:40:29;100621.56;;;13.59;100.00
52777;BME280;38656;54.260;20.822;2023-03-22T06:42:55;100620.50;;;12.81;100.00
52777;BME280;38656;54.260;20.822;2023-03-22T06:45:22;100621.19;;;13.23;100.00
52777;BME280;38656;54.260;20.822;2023-03-22T06:47:48;100629.22;;;13.02;100.00
52777;BME280;38656;54.260;20.822;2023-03-22T06:50:15;100624.34;;;12.67;100.00
52777;BME280;38656;54.260;20.822;2023-03-22T06:52:42;100621.28;;;14.96;98.33
52777;BME280;38656;54.260;20.822;2023-03-22T06:55:08;100616.94;;;13.01;98.79
52777;BME280;38656;54.260;20.822;2023-03-22T06:57:34;100621.56;;;12.16;100.00
52777;BME280;38656;54.260;20.822;2023-03-22T07:00:01;100629.38;;;12.70;100.00
52777;BME280;38656;54.260;20.822;2023-03-22T07:02:27;100624.19;;;13.50;100.00
52777;BME280;38656;54.260;20.822;2023-03-22T07:04:53;100613.03;;;14.52;98.87
52777;BME280;38656;54.260;20.822;2023-03-22T07:07:19;100611.66;;;13.11;100.00
52777;BME280;38656;54.260;20.822;2023-03-22T07:09:46;100598.56;;;13.19;100.00
52777;BME280;38656;54.260;20.822;2023-03-22T07:12:12;100607.22;;;12.71;100.00
52777;BME280;38656;54.260;20.822;2023-03-22T07:14:38;100595.47;;;14.31;100.00
52777;BME280;38656;54.260;20.822;2023-03-22T07:17:04;100603.22;;;13.37;100.00
52777;BME280;38656;54.260;20.822;2023-03-22T07:19:31;100603.22;;;13.37;100.00
52777;BME280;38656;54.260;20.822;2023-03-22T07:21:57;100590.97;;;12.95;100.00
52777;BME280;38656;54.260;20.822;2023-03-22T07:24:23;100601.28;;;13.39;100.00
52777;BME280;38656;54.260;20.822;2023-03-22T07:26:49;100596.84;;;12.99;100.00
52777;BME280;38656;54.260;20.822;2023-03-22T07:29:16;100603.19;;;13.17;100.00
52777;BME280;38656;54.260;20.822;2023-03-22T07:31:42;100605.63;;;13.40;100.00
52777;BME280;38656;54.260;20.822;2023-03-22T07:34:08;100607.84;;;13.54;100.00
52777;BME280;38656;54.260;20.822;2023-03-22T07:36:34;100604.50;;;13.62;100.00
52777;BME280;38656;54.260;20.822;2023-03-22T07:39:03;100600.53;;;13.17;100.00
52777;BME280;38656;54.260;20.822;2023-03-22T07:41:30;100595.47;;;13.14;100.00
52777;BME280;38656;54.260;20.822;2023-03-22T07:43:57;100588.00;;;13.68;100.00
52777;BME280;38656;54.260;20.822;2023-03-22T07:46:23;100588.53;;;13.33;100.00
52777;BME280;38656;54.260;20.822;2023-03-22T07:48:49;100589.47;;;12.62;100.00
52777;BME280;38656;54.260;20.822;2023-03-22T07:51:15;100583.72;;;13.48;100.00
52777;BME280;38656;54.260;20.822;2023-03-22T07:53:41;100586.84;;;13.32;100.00
52777;BME280;38656;54.260;20.822;2023-03-22T07:56:08;100582.78;;;13.18;100.00
52777;BME280;38656;54.260;20.822;2023-03-22T07:58:34;100582.19;;;14.79;100.00
52777;BME280;38656;54.260;20.822;2023-03-22T08:01:05;100579.50;;;12.85;100.00
52777;BME280;38656;54.260;20.822;2023-03-22T08:03:34;100576.38;;;14.56;100.00
52777;BME280;38656;54.260;20.822;2023-03-22T08:06:02;100579.09;;;14.36;100.00
52777;BME280;38656;54.260;20.822;2023-03-22T08:08:34;100572.38;;;13.85;100.00
52777;BME280;38656;54.260;20.822;2023-03-22T08:11:02;100570.63;;;14.13;100.00
52777;BME280;38656;54.260;20.822;2023-03-22T08:13:28;100572.38;;;13.75;100.00
52777;BME280;38656;54.260;20.822;2023-03-22T08:15:54;100569.84;;;13.83;100.00
52777;BME280;38656;54.260;20.822;2023-03-22T08:18:21;100560.53;;;12.89;100.00
52777;BME280;38656;54.260;20.822;2023-03-22T08:20:56;100557.91;;;14.54;100.00
52777;BME280;38656;54.260;20.822;2023-03-22T08:23:24;100555.06;;;15.21;100.00
52777;BME280;38656;54.260;20.822;2023-03-22T08:25:50;100556.09;;;14.17;100.00
52777;BME280;38656;54.260;20.822;2023-03-22T08:28:17;100554.09;;;13.52;100.00
52777;BME280;38656;54.260;20.822;2023-03-22T08:30:45;100549.78;;;14.65;100.00
52777;BME280;38656;54.260;20.822;2023-03-22T08:33:12;100554.78;;;13.74;100.00
52777;BME280;38656;54.260;20.822;2023-03-22T08:35:39;100545.72;;;13.47;100.00
52777;BME280;38656;54.260;20.822;2023-03-22T08:38:06;100544.09;;;12.96;100.00
52777;BME280;38656;54.260;20.822;2023-03-22T08:40:32;100550.16;;;13.17;100.00
52777;BME280;38656;54.260;20.822;2023-03-22T08:42:59;100544.72;;;13.77;100.00
52777;BME280;38656;54.260;20.822;2023-03-22T08:45:25;100545.69;;;14.99;100.00
52777;BME280;38656;54.260;20.822;2023-03-22T08:47:51;100547.59;;;15.07;100.00
52777;BME280;38656;54.260;20.822;2023-03-22T08:50:17;100539.84;;;14.95;100.00
52777;BME280;38656;54.260;20.822;2023-03-22T08:52:44;100540.09;;;14.37;100.00
52777;BME280;38656;54.260;20.822;2023-03-22T08:55:10;100541.59;;;14.77;100.00
52777;BME280;38656;54.260;20.822;2023-03-22T08:57:37;100531.56;;;14.71;100.00
52777;BME280;38656;54.260;20.822;2023-03-22T09:00:05;100537.88;;;15.33;100.00
52777;BME280;38656;54.260;20.822;2023-03-22T09:02:32;100539.66;;;14.79;100.00
52777;BME280;38656;54.260;20.822;2023-03-22T09:04:58;100522.66;;;13.67;100.00
52777;BME280;38656;54.260;20.822;2023-03-22T09:07:24;100529.25;;;14.85;100.00
52777;BME280;38656;54.260;20.822;2023-03-22T09:09:50;100531.41;;;14.34;100.00
52777;BME280;38656;54.260;20.822;2023-03-22T09:12:17;100517.03;;;15.83;100.00
52777;BME280;38656;54.260;20.822;2023-03-22T09:14:43;100526.91;;;14.45;100.00
52777;BME280;38656;54.260;20.822;2023-03-22T09:17:11;100528.50;;;13.90;100.00
52777;BME280;38656;54.260;20.822;2023-03-22T09:19:37;100516.22;;;14.92;100.00
52777;BME280;38656;54.260;20.822;2023-03-22T09:22:04;100528.25;;;13.74;100.00
52777;BME280;38656;54.260;20.822;2023-03-22T09:24:30;100511.25;;;14.42;100.00
52777;BME280;38656;54.260;20.822;2023-03-22T09:26:56;100504.88;;;13.87;100.00
52777;BME280;38656;54.260;20.822;2023-03-22T09:29:23;100512.84;;;13.77;100.00
52777;BME280;38656;54.260;20.822;2023-03-22T09:31:49;100513.72;;;13.78;100.00
52777;BME280;38656;54.260;20.822;2023-03-22T09:34:16;100504.97;;;15.34;100.00
52777;BME280;38656;54.260;20.822;2023-03-22T09:36:42;100508.25;;;14.27;100.00
52777;BME280;38656;54.260;20.822;2023-03-22T09:39:21;100498.41;;;15.91;100.00
52777;BME280;38656;54.260;20.822;2023-03-22T09:41:56;100509.44;;;15.16;100.00
52777;BME280;38656;54.260;20.822;2023-03-22T09:44:32;100508.66;;;14.69;100.00
52777;BME280;38656;54.260;20.822;2023-03-22T09:47:00;100504.75;;;14.54;100.00
52777;BME280;38656;54.260;20.822;2023-03-22T09:49:39;100508.81;;;14.30;100.00
52777;BME280;38656;54.260;20.822;2023-03-22T09:52:14;100505.72;;;14.91;100.00
52777;BME280;38656;54.260;20.822;2023-03-22T09:54:43;100510.81;;;14.09;100.00
52777;BME280;38656;54.260;20.822;2023-03-22T10:02:49;100504.69;;;14.74;100.00
52777;BME280;38656;54.260;20.822;2023-03-22T10:10:49;100505.56;;;13.99;100.00
52777;BME280;38656;54.260;20.822;2023-03-22T10:16:05;100515.00;;;14.21;100.00
52777;BME280;38656;54.260;20.822;2023-03-22T10:18:39;100510.91;;;15.72;100.00
52777;BME280;38656;54.260;20.822;2023-03-22T10:21:10;100503.78;;;13.80;100.00
52777;BME280;38656;54.260;20.822;2023-03-22T10:23:47;100506.06;;;14.50;100.00
52777;BME280;38656;54.260;20.822;2023-03-22T10:26:28;100500.63;;;14.42;100.00
52777;BME280;38656;54.260;20.822;2023-03-22T10:29:22;100504.28;;;14.41;100.00
52777;BME280;38656;54.260;20.822;2023-03-22T10:31:48;100505.84;;;13.86;100.00
52777;BME280;38656;54.260;20.822;2023-03-22T10:34:22;100505.59;;;13.70;100.00
52777;BME280;38656;54.260;20.822;2023-03-22T10:36:53;100499.84;;;14.87;100.00
52777;BME280;38656;54.260;20.822;2023-03-22T10:39:35;100499.16;;;13.92;100.00
52777;BME280;38656;54.260;20.822;2023-03-22T10:42:07;100496.50;;;13.92;100.00
52777;BME280;38656;54.260;20.822;2023-03-22T10:44:53;100488.53;;;13.92;100.00
52777;BME280;38656;54.260;20.822;2023-03-22T10:49:56;100480.41;;;13.93;100.00
52777;BME280;38656;54.260;20.822;2023-03-22T10:55:03;100476.84;;;13.65;100.00
52777;BME280;38656;54.260;20.822;2023-03-22T10:57:29;100475.44;;;13.80;100.00
52777;BME280;38656;54.260;20.822;2023-03-22T10:59:56;100478.97;;;14.92;100.00
52777;BME280;38656;54.260;20.822;2023-03-22T11:02:29;100474.06;;;14.42;100.00
52777;BME280;38656;54.260;20.822;2023-03-22T11:04:59;100474.03;;;13.76;100.00
52777;BME280;38656;54.260;20.822;2023-03-22T11:07:28;100469.25;;;14.83;100.00
52777;BME280;38656;54.260;20.822;2023-03-22T11:17:46;100473.22;;;14.97;100.00
52777;BME280;38656;54.260;20.822;2023-03-22T11:20:16;100470.47;;;13.48;100.00
52777;BME280;38656;54.260;20.822;2023-03-22T11:22:46;100477.66;;;14.23;100.00
52777;BME280;38656;54.260;20.822;2023-03-22T11:25:17;100469.63;;;14.32;100.00
52777;BME280;38656;54.260;20.822;2023-03-22T11:30:28;100462.75;;;15.39;100.00
52777;BME280;38656;54.260;20.822;2023-03-22T11:35:36;100474.16;;;14.22;100.00
52777;BME280;38656;54.260;20.822;2023-03-22T11:38:04;100470.13;;;14.46;100.00
52777;BME280;38656;54.260;20.822;2023-03-22T11:40:35;100454.91;;;15.56;100.00
52777;BME280;38656;54.260;20.822;2023-03-22T11:44:14;100461.59;;;14.24;100.00
52777;BME280;38656;54.260;20.822;2023-03-22T11:46:16;100453.53;;;15.08;100.00
52777;BME280;38656;54.260;20.822;2023-03-22T11:49:00;100450.44;;;15.38;100.00
52777;BME280;38656;54.260;20.822;2023-03-22T11:51:30;100448.84;;;15.90;100.00
52777;BME280;38656;54.260;20.822;2023-03-22T11:54:09;100450.47;;;14.66;100.00
52777;BME280;38656;54.260;20.822;2023-03-22T11:56:47;100444.56;;;14.91;100.00
52777;BME280;38656;54.260;20.822;2023-03-22T11:59:26;100446.97;;;14.84;100.00
52777;BME280;38656;54.260;20.822;2023-03-22T12:02:02;100442.75;;;15.35;100.00
52777;BME280;38656;54.260;20.822;2023-03-22T12:04:33;100440.84;;;15.46;100.00
52777;BME280;38656;54.260;20.822;2023-03-22T12:07:04;100450.53;;;15.29;100.00
52777;BME280;38656;54.260;20.822;2023-03-22T12:10:28;100446.97;;;15.20;100.00
52777;BME280;38656;54.260;20.822;2023-03-22T12:12:39;100442.97;;;15.60;100.00
52777;BME280;38656;54.260;20.822;2023-03-22T12:15:22;100447.38;;;15.25;100.00
52777;BME280;38656;54.260;20.822;2023-03-22T12:18:05;100434.97;;;15.60;100.00
52777;BME280;38656;54.260;20.822;2023-03-22T12:20:40;100438.72;;;15.75;100.00
52777;BME280;38656;54.260;20.822;2023-03-22T12:23:37;100434.78;;;15.35;100.00
52777;BME280;38656;54.260;20.822;2023-03-22T12:26:09;100430.94;;;15.30;100.00
52777;BME280;38656;54.260;20.822;2023-03-22T12:31:22;100433.78;;;14.92;100.00
52777;BME280;38656;54.260;20.822;2023-03-22T12:33:53;100435.34;;;14.67;100.00
52777;BME280;38656;54.260;20.822;2023-03-22T12:36:33;100429.25;;;15.29;100.00
52777;BME280;38656;54.260;20.822;2023-03-22T12:39:02;100424.47;;;15.58;100.00
52777;BME280;38656;54.260;20.822;2023-03-22T12:41:41;100427.31;;;14.95;100.00
52777;BME280;38656;54.260;20.822;2023-03-22T12:44:17;100422.09;;;15.73;100.00
52777;BME280;38656;54.260;20.822;2023-03-22T12:46:48;100417.97;;;14.73;100.00
52777;BME280;38656;54.260;20.822;2023-03-22T12:49:37;100417.59;;;15.48;100.00
52777;BME280;38656;54.260;20.822;2023-03-22T12:52:19;100418.28;;;15.06;100.00
52777;BME280;38656;54.260;20.822;2023-03-22T12:54:50;100414.00;;;15.13;100.00
52777;BME280;38656;54.260;20.822;2023-03-22T12:57:17;100413.19;;;14.94;100.00
52777;BME280;38656;54.260;20.822;2023-03-22T12:59:48;100409.16;;;15.79;100.00
52777;BME280;38656;54.260;20.822;2023-03-22T13:04:52;100407.25;;;16.40;100.00
52777;BME280;38656;54.260;20.822;2023-03-22T13:07:40;100410.63;;;15.29;100.00
52777;BME280;38656;54.260;20.822;2023-03-22T13:21:20;100411.53;;;15.37;100.00
52777;BME280;38656;54.260;20.822;2023-03-22T13:24:01;100411.19;;;14.96;100.00
52777;BME280;38656;54.260;20.822;2023-03-22T13:26:58;100407.38;;;15.17;100.00
52777;BME280;38656;54.260;20.822;2023-03-22T13:29:37;100411.91;;;14.07;100.00
52777;BME280;38656;54.260;20.822;2023-03-22T13:32:27;100407.66;;;14.69;100.00
52777;BME280;38656;54.260;20.822;2023-03-22T13:34:55;100404.06;;;14.79;100.00
52777;BME280;38656;54.260;20.822;2023-03-22T13:37:42;100387.06;;;16.37;100.00
52777;BME280;38656;54.260;20.822;2023-03-22T13:42:39;100395.25;;;15.93;100.00
52777;BME280;38656;54.260;20.822;2023-03-22T13:45:29;100404.50;;;15.28;100.00
52777;BME280;38656;54.260;20.822;2023-03-22T13:50:54;100394.94;;;15.44;100.00
52777;BME280;38656;54.260;20.822;2023-03-22T13:53:30;100393.94;;;16.64;100.00
52777;BME280;38656;54.260;20.822;2023-03-22T13:56:04;100397.34;;;16.16;100.00
52777;BME280;38656;54.260;20.822;2023-03-22T13:58:52;100401.31;;;16.20;100.00
52777;BME280;38656;54.260;20.822;2023-03-22T14:01:33;100396.91;;;15.68;100.00
52777;BME280;38656;54.260;20.822;2023-03-22T14:04:05;100402.44;;;15.74;100.00
52777;BME280;38656;54.260;20.822;2023-03-22T14:06:48;100395.91;;;15.87;100.00
52777;BME280;38656;54.260;20.822;2023-03-22T14:09:32;100398.91;;;15.92;100.00
52777;BME280;38656;54.260;20.822;2023-03-22T14:12:04;100398.56;;;15.95;100.00
52777;BME280;38656;54.260;20.822;2023-03-22T14:14:39;100389.84;;;17.11;100.00
52777;BME280;38656;54.260;20.822;2023-03-22T14:20:02;100387.16;;;15.77;100.00
52777;BME280;38656;54.260;20.822;2023-03-22T14:22:37;100382.19;;;15.82;100.00
52777;BME280;38656;54.260;20.822;2023-03-22T14:25:07;100370.59;;;15.91;100.00
52777;BME280;38656;54.260;20.822;2023-03-22T14:27:34;100380.13;;;15.15;100.00